Time;durP1;ratioP1;P1;durP2;ratioP2;P2;SDS_P1;SDS_P2;PMS_P1;PMS_P2;Temp;Humidity;BMP_temperature;BMP_pressure;BME280_temperature;BME280_humidity;BME280_pressure;Samples;Min_cycle;Max_cycle;Signal;HPM_P1;HPM_P2
2024/03/13 00:00:04;;;;;;;2.40;2.20;;;5.80;99.90;;;;;;5030677;28;20256;-74
2024/03/13 00:02:35;;;;;;;4.40;2.70;;;5.90;99.90;;;;;;5031233;28;20230;-75
2024/03/13 00:05:02;;;;;;;3.40;2.50;;;5.90;99.90;;;;;;5030801;28;20252;-75
2024/03/13 00:07:31;;;;;;;4.75;2.80;;;5.90;99.90;;;;;;5030991;28;20565;-75
2024/03/13 00:10:00;;;;;;;4.30;2.60;;;5.80;99.90;;;;;;5030879;28;20297;-75
2024/03/13 00:12:27;;;;;;;2.38;1.90;;;5.80;99.90;;;;;;5030763;28;20225;-75
2024/03/13 00:14:56;;;;;;;4.35;2.72;;;5.80;99.90;;;;;;5030752;28;20757;-75
2024/03/13 00:17:24;;;;;;;3.58;1.90;;;5.80;99.90;;;;;;5030825;28;20202;-74
2024/03/13 00:19:54;;;;;;;3.45;2.10;;;5.80;99.90;;;;;;5030691;28;20209;-75
2024/03/13 00:22:22;;;;;;;4.97;2.03;;;5.80;99.90;;;;;;5030621;28;20233;-75
2024/03/13 00:24:49;;;;;;;3.45;1.70;;;5.80;99.90;;;;;;5030917;28;20229;-75
2024/03/13 00:27:16;;;;;;;2.30;1.90;;;5.70;99.90;;;;;;5030716;28;20217;-75
2024/03/13 00:29:44;;;;;;;2.42;2.22;;;5.70;99.90;;;;;;5030538;28;20206;-75
2024/03/13 00:32:11;;;;;;;2.42;1.70;;;5.70;99.90;;;;;;5030516;28;20202;-74
2024/03/13 00:34:43;;;;;;;2.60;1.92;;;5.70;99.90;;;;;;5030600;28;20746;-75
2024/03/13 00:37:09;;;;;;;2.03;1.83;;;5.60;99.90;;;;;;5031265;28;20206;-74
2024/03/13 00:39:36;;;;;;;2.03;1.83;;;5.60;99.90;;;;;;5034465;28;20210;-75
2024/03/13 00:42:04;;;;;;;2.53;1.70;;;5.60;99.90;;;;;;5034087;28;20311;-75
2024/03/13 00:44:31;;;;;;;2.80;1.65;;;5.60;99.90;;;;;;5034660;28;20579;-75
2024/03/13 00:46:58;;;;;;;1.90;1.40;;;5.60;99.90;;;;;;5034259;28;20210;-75
2024/03/13 00:49:25;;;;;;;2.25;1.55;;;5.60;99.90;;;;;;5034043;28;20631;-75
2024/03/13 00:51:54;;;;;;;3.17;2.17;;;5.60;99.90;;;;;;5033914;28;20206;-75
2024/03/13 00:54:21;;;;;;;1.95;1.75;;;5.60;99.90;;;;;;5034267;28;20238;-74
2024/03/13 00:56:48;;;;;;;2.38;1.30;;;5.60;99.90;;;;;;5034148;28;20206;-75
2024/03/13 00:59:16;;;;;;;1.67;1.20;;;5.50;99.90;;;;;;5033753;28;20248;-74
2024/03/13 01:01:44;;;;;;;2.35;1.27;;;5.50;99.90;;;;;;5033962;28;20232;-74
2024/03/13 01:04:11;;;;;;;2.40;1.50;;;5.40;99.90;;;;;;5033912;28;20225;-75
2024/03/13 01:06:38;;;;;;;1.55;1.27;;;5.40;99.90;;;;;;5034230;28;20301;-75
2024/03/13 01:09:09;;;;;;;1.60;1.50;;;5.40;99.90;;;;;;5033746;28;20210;-75
2024/03/13 01:11:36;;;;;;;1.45;1.23;;;5.40;99.90;;;;;;5033780;28;20206;-75
2024/03/13 01:14:04;;;;;;;2.90;1.80;;;5.50;99.90;;;;;;5033728;28;20209;-74
2024/03/13 01:16:30;;;;;;;1.52;1.35;;;5.40;99.90;;;;;;5033864;28;20206;-74
2024/03/13 01:18:59;;;;;;;1.63;1.02;;;5.40;99.90;;;;;;5034013;28;20213;-73
2024/03/13 01:21:25;;;;;;;3.40;1.70;;;5.40;99.90;;;;;;5033108;28;20311;-74
2024/03/13 01:23:52;;;;;;;1.58;1.30;;;5.40;99.90;;;;;;5033249;28;20202;-74
2024/03/13 01:26:20;;;;;;;1.58;1.48;;;5.40;99.90;;;;;;5033612;28;20209;-74
2024/03/13 01:28:47;;;;;;;1.95;1.27;;;5.40;99.90;;;;;;5033382;28;20198;-74
2024/03/13 01:31:14;;;;;;;1.30;1.20;;;5.50;99.90;;;;;;5032645;28;20301;-74
2024/03/13 01:33:41;;;;;;;1.90;1.35;;;5.40;99.90;;;;;;5033550;28;20206;-74
2024/03/13 01:36:08;;;;;;;1.27;1.00;;;5.40;99.90;;;;;;5033639;28;20222;-74
2024/03/13 01:38:34;;;;;;;2.15;1.35;;;5.50;99.90;;;;;;5033629;28;20208;-74
2024/03/13 01:55:10;;;;;;;1.40;0.98;;;5.50;99.90;;;;;;5033185;28;20279;-74
2024/03/13 01:57:56;;;;;;;1.02;0.93;;;5.50;99.90;;;;;;5033322;28;20633;-74
2024/03/13 02:03:09;;;;;;;1.50;1.25;;;5.50;99.90;;;;;;5032928;28;20232;-74
2024/03/13 02:05:36;;;;;;;2.13;0.88;;;5.40;99.90;;;;;;5032938;28;20234;-74
2024/03/13 02:08:05;;;;;;;1.20;0.93;;;5.50;99.90;;;;;;5033027;28;20206;-74
2024/03/13 02:10:31;;;;;;;1.08;0.98;;;5.40;99.90;;;;;;5032327;28;20202;-74
2024/03/13 02:13:03;;;;;;;1.02;0.93;;;5.50;99.90;;;;;;5032683;28;20205;-74
2024/03/13 02:15:31;;;;;;;1.40;1.13;;;5.50;99.90;;;;;;5032729;28;20222;-74
2024/03/13 02:17:58;;;;;;;0.93;0.85;;;5.50;99.90;;;;;;5032625;28;20238;-74
2024/03/13 02:20:25;;;;;;;1.00;0.90;;;5.50;99.90;;;;;;5031910;28;20599;-74
2024/03/13 02:22:52;;;;;;;1.20;1.02;;;5.60;99.90;;;;;;5032612;28;20635;-75
2024/03/13 02:25:19;;;;;;;1.20;1.10;;;5.60;99.90;;;;;;5032692;28;20583;-74
2024/03/13 02:27:51;;;;;;;1.27;1.08;;;5.60;99.90;;;;;;5015005;28;20205;-74
2024/03/13 02:30:18;;;;;;;1.10;0.80;;;5.60;99.90;;;;;;5014826;28;20237;-74
2024/03/13 02:32:47;;;;;;;1.02;0.90;;;5.50;99.90;;;;;;5015021;28;20586;-74
2024/03/13 02:35:14;;;;;;;1.10;0.95;;;5.40;99.90;;;;;;5015006;28;20234;-74
2024/03/13 02:37:42;;;;;;;1.25;1.00;;;5.40;99.90;;;;;;5014725;28;20209;-74
2024/03/13 02:40:10;;;;;;;1.40;1.30;;;5.40;99.90;;;;;;5014752;28;20295;-74
2024/03/13 02:42:37;;;;;;;1.13;0.90;;;5.50;99.90;;;;;;5014264;28;20225;-74
2024/03/13 02:45:04;;;;;;;1.23;1.13;;;5.50;99.90;;;;;;5018079;28;20232;-75
2024/03/13 02:47:31;;;;;;;1.35;0.90;;;5.40;99.90;;;;;;5018338;28;20209;-74
2024/03/13 02:49:58;;;;;;;1.23;1.10;;;5.40;99.90;;;;;;5018198;28;20326;-74
2024/03/13 02:52:26;;;;;;;1.05;0.95;;;5.40;99.90;;;;;;5018507;28;20223;-74
2024/03/13 02:54:52;;;;;;;1.75;1.35;;;5.40;99.90;;;;;;5018133;28;20279;-75
2024/03/13 02:57:20;;;;;;;1.08;0.98;;;5.40;99.90;;;;;;5017872;28;20204;-74
2024/03/13 02:59:47;;;;;;;3.55;1.15;;;5.40;99.90;;;;;;5017338;28;20210;-74
2024/03/13 03:02:14;;;;;;;1.10;0.95;;;5.40;99.90;;;;;;5017482;28;20231;-74
2024/03/13 03:04:42;;;;;;;1.15;1.05;;;5.40;99.90;;;;;;5017606;28;20702;-74
2024/03/13 03:07:08;;;;;;;2.60;1.20;;;5.40;99.90;;;;;;5018104;28;20216;-74
2024/03/13 03:09:35;;;;;;;1.48;1.17;;;5.30;99.90;;;;;;5017277;28;20206;-74
2024/03/13 03:12:08;;;;;;;1.48;1.25;;;5.30;99.90;;;;;;5017148;28;20212;-74
2024/03/13 03:14:35;;;;;;;1.13;0.90;;;5.30;99.90;;;;;;5019181;28;20248;-75
2024/03/13 03:17:02;;;;;;;1.10;0.80;;;5.40;99.90;;;;;;5017586;28;20202;-74
2024/03/13 03:19:29;;;;;;;1.10;0.90;;;5.40;99.90;;;;;;5016926;28;20217;-75
2024/03/13 03:21:56;;;;;;;1.58;1.05;;;5.40;99.90;;;;;;5017203;28;20247;-74
2024/03/13 03:24:23;;;;;;;1.58;1.30;;;5.40;99.90;;;;;;5017216;28;20229;-74
2024/03/13 03:26:50;;;;;;;1.25;1.00;;;5.40;99.90;;;;;;5017709;28;20538;-74
2024/03/13 03:29:18;;;;;;;1.10;1.00;;;5.40;99.90;;;;;;5017084;28;20209;-75
2024/03/13 03:31:44;;;;;;;1.27;1.00;;;5.40;99.90;;;;;;5017251;28;20244;-75
2024/03/13 03:34:12;;;;;;;1.00;0.88;;;5.40;99.90;;;;;;5017152;28;20252;-75
2024/03/13 03:36:40;;;;;;;1.60;1.08;;;5.40;99.90;;;;;;5017317;28;20216;-75
2024/03/13 03:39:10;;;;;;;1.40;0.95;;;5.50;99.90;;;;;;5017337;28;20205;-75
2024/03/13 03:41:37;;;;;;;1.15;1.05;;;5.50;99.90;;;;;;5017839;28;20208;-75
2024/03/13 03:44:04;;;;;;;1.10;1.00;;;5.50;99.90;;;;;;5017175;28;20515;-75
2024/03/13 03:46:31;;;;;;;1.02;0.90;;;5.50;99.90;;;;;;5017142;28;20255;-75
2024/03/13 03:48:58;;;;;;;1.10;1.00;;;5.50;99.90;;;;;;5016758;28;20212;-75
2024/03/13 03:51:26;;;;;;;1.42;1.05;;;5.60;99.90;;;;;;5017145;28;20262;-75
2024/03/13 03:53:53;;;;;;;0.95;0.85;;;5.60;99.90;;;;;;5017144;28;20670;-75
2024/03/13 03:56:21;;;;;;;1.20;1.10;;;5.60;99.90;;;;;;5017040;28;20205;-74
2024/03/13 03:58:50;;;;;;;1.55;1.00;;;5.60;99.90;;;;;;5017266;28;20248;-74
2024/03/13 04:01:17;;;;;;;1.60;1.20;;;5.60;99.90;;;;;;5017238;28;20209;-75
2024/03/13 04:03:45;;;;;;;1.30;1.17;;;5.60;99.90;;;;;;5016758;28;20752;-75
2024/03/13 04:06:11;;;;;;;1.48;1.00;;;5.70;99.90;;;;;;5016691;28;20225;-75
2024/03/13 04:08:38;;;;;;;2.13;1.00;;;5.70;99.90;;;;;;5016810;28;20697;-75
2024/03/13 04:11:05;;;;;;;1.13;1.00;;;5.70;99.90;;;;;;5016348;28;20212;-75
2024/03/13 04:13:32;;;;;;;0.95;0.80;;;5.70;99.90;;;;;;5019681;28;20216;-75
2024/03/13 04:16:00;;;;;;;1.10;1.00;;;5.70;99.90;;;;;;5020528;28;20225;-75
2024/03/13 04:18:26;;;;;;;1.20;1.00;;;5.60;99.90;;;;;;5021058;28;20209;-75
2024/03/13 04:20:53;;;;;;;1.70;1.10;;;5.70;99.90;;;;;;5020214;28;20220;-74
2024/03/13 04:23:20;;;;;;;1.73;1.50;;;5.60;99.90;;;;;;5020734;28;20228;-75
2024/03/13 04:25:47;;;;;;;1.55;1.30;;;5.70;99.90;;;;;;5020907;28;20233;-74
2024/03/13 04:28:14;;;;;;;1.10;1.00;;;5.70;99.90;;;;;;5020871;28;20230;-74
2024/03/13 04:30:41;;;;;;;3.25;1.50;;;5.70;99.90;;;;;;5019949;28;20222;-75
2024/03/13 04:33:08;;;;;;;1.60;1.50;;;5.70;99.90;;;;;;5020827;28;20258;-75
2024/03/13 04:35:35;;;;;;;1.33;1.23;;;5.70;99.90;;;;;;5020395;28;20248;-75
2024/03/13 04:38:03;;;;;;;1.13;1.02;;;5.70;99.90;;;;;;5020415;28;20212;-75
2024/03/13 04:40:29;;;;;;;1.52;1.42;;;5.70;99.90;;;;;;5020101;28;20219;-75
2024/03/13 04:42:57;;;;;;;1.50;1.30;;;5.60;99.90;;;;;;5020298;28;20229;-75
2024/03/13 04:45:24;;;;;;;1.65;1.55;;;5.60;99.90;;;;;;5020476;28;20302;-74
2024/03/13 04:47:51;;;;;;;1.60;1.10;;;5.60;99.90;;;;;;5020375;28;20213;-74
2024/03/13 04:50:18;;;;;;;1.67;1.05;;;5.70;99.90;;;;;;5019901;28;20700;-75
2024/03/13 04:52:45;;;;;;;1.20;1.05;;;5.70;99.90;;;;;;5020094;28;20674;-75
2024/03/13 04:55:12;;;;;;;1.35;1.17;;;5.70;99.90;;;;;;5020427;28;20233;-74
2024/03/13 04:57:40;;;;;;;1.50;1.40;;;5.70;99.90;;;;;;5020746;28;20213;-76
2024/03/13 05:00:08;;;;;;;1.63;1.30;;;5.70;99.90;;;;;;5020025;28;20209;-76
2024/03/13 05:02:35;;;;;;;2.38;1.17;;;5.70;99.90;;;;;;5008666;28;20617;-75
2024/03/13 05:05:01;;;;;;;1.52;0.98;;;5.70;99.90;;;;;;5019573;28;20221;-75
2024/03/13 05:07:28;;;;;;;1.70;1.30;;;5.70;99.90;;;;;;5020096;28;20212;-75
2024/03/13 05:09:55;;;;;;;1.90;1.70;;;5.70;99.90;;;;;;5019721;28;20581;-76
2024/03/13 05:12:22;;;;;;;1.40;1.15;;;5.70;99.90;;;;;;5019851;28;20805;-75
2024/03/13 05:14:49;;;;;;;1.48;1.38;;;5.80;99.90;;;;;;5024430;28;20241;-75
2024/03/13 05:17:16;;;;;;;1.55;1.20;;;5.80;99.90;;;;;;5026122;28;20209;-75
2024/03/13 05:19:43;;;;;;;2.97;1.58;;;5.80;99.90;;;;;;5019171;28;20217;-75
2024/03/13 05:22:10;;;;;;;1.25;1.10;;;5.90;99.90;;;;;;5395485;23;20241;-79
2024/03/13 05:24:37;;;;;;;2.05;1.35;;;5.90;99.90;;;;;;5053750;28;20672;-78
2024/03/13 05:27:05;;;;;;;1.50;1.40;;;5.90;99.90;;;;;;5045658;28;20209;-78
2024/03/13 05:29:33;;;;;;;1.60;1.50;;;5.90;99.90;;;;;;5052923;28;20209;-78
2024/03/13 05:32:01;;;;;;;1.65;1.48;;;5.90;99.90;;;;;;5045545;28;20320;-78
2024/03/13 05:34:28;;;;;;;1.13;1.02;;;5.90;99.90;;;;;;5055443;28;20201;-78
2024/03/13 05:36:55;;;;;;;1.55;1.45;;;5.90;99.90;;;;;;5040737;28;20225;-78
2024/03/13 05:39:24;;;;;;;1.30;1.20;;;6.00;99.90;;;;;;5048488;28;20201;-78
2024/03/13 05:41:51;;;;;;;1.27;1.17;;;6.00;99.90;;;;;;5049424;28;20278;-77
2024/03/13 05:44:17;;;;;;;2.65;1.40;;;6.00;99.90;;;;;;5057139;28;20227;-79
2024/03/13 05:46:44;;;;;;;1.25;1.15;;;6.00;99.90;;;;;;5052899;28;20699;-80
2024/03/13 05:49:16;;;;;;;1.35;1.25;;;6.00;99.90;;;;;;5046728;28;20220;-78
2024/03/13 05:51:43;;;;;;;2.58;1.10;;;6.00;99.90;;;;;;5053340;28;20232;-78
2024/03/13 05:54:10;;;;;;;1.40;1.10;;;6.00;99.90;;;;;;5052179;28;20451;-79
2024/03/13 05:56:37;;;;;;;2.00;1.35;;;6.00;99.90;;;;;;5055384;28;20234;-79
2024/03/13 05:59:04;;;;;;;2.13;1.40;;;6.10;99.90;;;;;;5044850;28;20211;-79
2024/03/13 06:01:31;;;;;;;1.88;1.70;;;6.10;99.90;;;;;;5054994;28;20580;-79
2024/03/13 06:03:58;;;;;;;1.25;1.15;;;6.10;99.90;;;;;;5044289;28;20222;-78
2024/03/13 06:06:25;;;;;;;1.20;1.05;;;6.10;99.90;;;;;;5056908;28;20216;-79
2024/03/13 06:08:53;;;;;;;1.92;1.77;;;6.10;99.90;;;;;;5056740;28;20220;-78
2024/03/13 06:11:20;;;;;;;4.53;2.08;;;6.00;99.90;;;;;;5055988;28;20229;-78
2024/03/13 06:13:47;;;;;;;2.00;1.80;;;6.00;99.90;;;;;;5056651;28;20223;-79
2024/03/13 06:16:15;;;;;;;2.85;2.45;;;6.00;99.90;;;;;;5053699;28;20212;-79
2024/03/13 06:18:42;;;;;;;2.20;2.00;;;6.00;99.90;;;;;;5055501;28;20205;-78
2024/03/13 06:21:09;;;;;;;2.88;2.22;;;6.10;99.90;;;;;;5045126;28;20237;-78
2024/03/13 06:23:47;;;;;;;3.58;2.30;;;6.10;99.90;;;;;;5053233;28;20240;-79
2024/03/13 06:26:16;;;;;;;2.95;2.75;;;6.00;99.90;;;;;;5047938;28;20236;-79
2024/03/13 06:31:28;;;;;;;3.42;3.13;;;6.00;99.90;;;;;;5049905;28;20276;-79
2024/03/13 06:33:55;;;;;;;3.50;2.80;;;6.00;99.90;;;;;;5045882;28;20194;-79
2024/03/13 06:36:22;;;;;;;2.88;2.60;;;6.00;99.90;;;;;;5053097;28;20241;-79
2024/03/13 06:38:49;;;;;;;3.92;2.65;;;6.00;99.90;;;;;;5062109;28;20214;-78
2024/03/13 06:41:15;;;;;;;3.60;3.30;;;6.00;99.90;;;;;;5058512;28;20225;-78
2024/03/13 06:43:42;;;;;;;4.00;3.60;;;6.00;99.90;;;;;;5068085;28;20228;-79
2024/03/13 06:46:09;;;;;;;5.22;3.67;;;6.10;99.90;;;;;;5059338;28;20217;-79
2024/03/13 06:48:36;;;;;;;5.43;3.35;;;6.10;99.90;;;;;;5067085;28;20232;-79
2024/03/13 06:51:06;;;;;;;3.22;2.63;;;6.20;99.90;;;;;;5057204;28;20221;-78
2024/03/13 06:53:33;;;;;;;3.80;3.00;;;6.20;99.90;;;;;;5056599;28;20643;-78
2024/03/13 06:55:59;;;;;;;4.43;3.08;;;6.10;99.90;;;;;;5045375;28;20210;-80
2024/03/13 06:58:27;;;;;;;3.10;2.80;;;6.20;99.90;;;;;;5059360;28;20280;-80
2024/03/13 07:00:55;;;;;;;2.78;2.58;;;6.20;99.90;;;;;;5057912;28;20283;-78
2024/03/13 07:03:23;;;;;;;4.22;3.22;;;6.30;99.90;;;;;;5058298;28;20285;-78
2024/03/13 07:05:51;;;;;;;5.28;3.80;;;6.40;99.90;;;;;;5057065;28;20262;-78
2024/03/13 07:08:18;;;;;;;5.15;3.20;;;6.40;99.90;;;;;;5055994;28;20216;-79
2024/03/13 07:10:44;;;;;;;4.05;3.50;;;6.40;99.90;;;;;;5052778;28;20686;-78
2024/03/13 07:13:11;;;;;;;3.55;3.25;;;6.50;99.90;;;;;;5055092;28;20238;-82
2024/03/13 07:15:42;;;;;;;4.25;3.20;;;6.50;99.90;;;;;;5052635;28;20209;-80
2024/03/13 07:18:08;;;;;;;3.38;2.80;;;6.50;99.90;;;;;;5044078;28;20611;-80
2024/03/13 07:20:35;;;;;;;6.10;4.00;;;6.60;99.90;;;;;;5054990;28;20204;-77
2024/03/13 07:23:02;;;;;;;4.05;3.22;;;6.60;99.90;;;;;;5042306;28;20227;-77
2024/03/13 07:25:29;;;;;;;3.40;2.75;;;6.60;99.90;;;;;;5056161;28;20593;-78
2024/03/13 07:27:56;;;;;;;2.45;2.25;;;6.70;99.90;;;;;;5054717;28;20205;-78
2024/03/13 07:30:26;;;;;;;3.30;2.63;;;6.70;99.90;;;;;;5054213;28;20200;-78
2024/03/13 07:32:53;;;;;;;2.60;2.40;;;6.80;99.90;;;;;;5055029;28;20814;-78
2024/03/13 07:35:21;;;;;;;3.33;2.75;;;6.90;99.90;;;;;;5054840;28;20204;-76
2024/03/13 07:37:48;;;;;;;2.70;2.50;;;6.90;99.90;;;;;;5059018;28;20212;-78
2024/03/13 07:40:16;;;;;;;2.88;2.60;;;6.90;99.90;;;;;;5077439;28;20204;-78
2024/03/13 07:42:43;;;;;;;5.43;2.95;;;6.90;99.90;;;;;;5076181;28;20224;-78
2024/03/13 07:45:14;;;;;;;3.10;2.47;;;6.90;99.90;;;;;;5065353;28;20221;-79
2024/03/13 07:47:41;;;;;;;2.38;2.17;;;6.90;99.90;;;;;;5073237;28;20723;-78
2024/03/13 07:50:09;;;;;;;2.67;2.47;;;7.00;99.90;;;;;;5052861;28;20209;-78
2024/03/13 07:52:36;;;;;;;1.98;1.63;;;7.00;99.90;;;;;;5055454;28;20275;-79
2024/03/13 07:55:04;;;;;;;6.18;1.80;;;7.10;99.90;;;;;;5045908;28;20206;-78
2024/03/13 07:57:31;;;;;;;2.28;1.80;;;7.20;99.90;;;;;;5045673;28;20210;-77
2024/03/13 07:59:58;;;;;;;1.88;1.75;;;7.20;99.90;;;;;;5052137;28;20216;-78
2024/03/13 08:02:24;;;;;;;2.20;2.00;;;7.30;99.90;;;;;;5053410;28;20225;-78
2024/03/13 08:04:51;;;;;;;2.63;2.42;;;7.30;99.90;;;;;;5054035;28;20611;-77
2024/03/13 08:07:20;;;;;;;2.47;2.28;;;7.40;99.90;;;;;;5053927;28;20216;-76
2024/03/13 08:09:47;;;;;;;1.65;1.52;;;7.30;99.90;;;;;;5050661;28;20201;-75
2024/03/13 08:12:14;;;;;;;2.40;2.20;;;7.40;99.90;;;;;;5052422;28;20233;-76
2024/03/13 08:14:40;;;;;;;2.00;1.85;;;7.40;99.90;;;;;;5052855;28;20202;-75
2024/03/13 08:17:07;;;;;;;1.40;1.30;;;7.50;99.90;;;;;;5038844;28;20597;-76
2024/03/13 08:19:34;;;;;;;2.22;1.75;;;7.60;99.90;;;;;;5049136;28;20215;-75
2024/03/13 08:22:01;;;;;;;1.30;1.20;;;7.60;99.90;;;;;;5042951;28;20605;-75
2024/03/13 08:24:28;;;;;;;1.80;1.70;;;7.70;99.90;;;;;;5041323;28;20235;-76
2024/03/13 08:26:55;;;;;;;1.65;1.55;;;7.80;99.90;;;;;;5043173;28;20214;-75
2024/03/13 08:29:21;;;;;;;1.77;1.40;;;7.80;99.90;;;;;;5040106;28;20208;-77
2024/03/13 08:31:50;;;;;;;2.75;1.50;;;7.90;99.90;;;;;;5050400;28;20757;-77
2024/03/13 08:34:17;;;;;;;2.00;1.80;;;7.90;99.90;;;;;;5043653;28;20219;-77
2024/03/13 08:36:44;;;;;;;1.60;1.50;;;8.00;99.90;;;;;;5054012;28;20204;-78
2024/03/13 08:39:12;;;;;;;1.50;1.40;;;8.00;99.90;;;;;;5047044;28;20209;-78
2024/03/13 08:41:39;;;;;;;1.63;1.52;;;8.00;99.90;;;;;;5069359;28;20280;-78
2024/03/13 08:44:06;;;;;;;1.65;1.30;;;8.10;99.90;;;;;;5049722;28;20251;-78
2024/03/13 08:46:33;;;;;;;1.42;1.33;;;8.00;99.90;;;;;;5048763;28;20229;-78
2024/03/13 08:49:02;;;;;;;1.33;1.23;;;8.10;99.90;;;;;;5052813;28;20566;-77
2024/03/13 08:51:30;;;;;;;1.60;1.50;;;8.10;99.90;;;;;;5052942;28;20231;-75
2024/03/13 08:53:57;;;;;;;1.58;1.20;;;8.10;99.90;;;;;;5047677;28;20205;-75
2024/03/13 08:56:24;;;;;;;1.80;1.27;;;8.20;99.90;;;;;;5040056;28;20595;-76
2024/03/13 08:58:51;;;;;;;1.55;1.15;;;8.30;99.90;;;;;;5052044;28;20591;-76
2024/03/13 09:01:18;;;;;;;1.20;0.90;;;8.40;99.90;;;;;;5051004;28;20728;-78
2024/03/13 09:03:45;;;;;;;1.65;1.10;;;8.40;99.90;;;;;;5048195;28;20222;-75
2024/03/13 09:06:15;;;;;;;1.48;1.38;;;8.50;99.90;;;;;;5053239;28;20218;-78
2024/03/13 09:08:43;;;;;;;1.60;0.93;;;8.60;99.90;;;;;;5051699;28;20208;-75
2024/03/13 09:11:12;;;;;;;1.20;1.00;;;8.60;99.90;;;;;;5047098;28;20224;-75
2024/03/13 09:13:41;;;;;;;1.00;0.90;;;8.70;99.90;;;;;;5049021;28;20204;-76
2024/03/13 09:16:13;;;;;;;1.00;0.80;;;8.70;99.90;;;;;;5049652;28;20207;-76
2024/03/13 09:18:40;;;;;;;0.80;0.80;;;8.70;99.90;;;;;;5052210;28;20214;-76
2024/03/13 09:21:07;;;;;;;1.30;1.20;;;8.80;99.90;;;;;;5042331;28;20235;-75
2024/03/13 09:23:34;;;;;;;1.00;0.90;;;8.80;99.90;;;;;;5049881;28;20215;-76
2024/03/13 09:26:01;;;;;;;1.00;0.90;;;9.00;99.90;;;;;;5046949;28;20896;-76
2024/03/13 09:28:28;;;;;;;1.42;0.82;;;9.10;99.90;;;;;;5063540;28;20208;-76
2024/03/13 09:30:55;;;;;;;0.82;0.80;;;9.10;99.90;;;;;;5050857;28;20748;-77
2024/03/13 09:33:22;;;;;;;0.90;0.80;;;9.10;99.90;;;;;;5064038;28;20204;-76
2024/03/13 09:35:49;;;;;;;1.25;0.90;;;9.10;99.90;;;;;;5044104;28;20668;-76
2024/03/13 09:38:17;;;;;;;0.90;0.80;;;9.20;99.90;;;;;;5038800;28;20215;-76
2024/03/13 09:40:44;;;;;;;1.00;0.70;;;9.30;99.90;;;;;;5048962;28;20678;-76
2024/03/13 09:43:11;;;;;;;0.90;0.80;;;9.30;99.90;;;;;;5052781;28;20213;-76
2024/03/13 09:45:38;;;;;;;0.80;0.70;;;9.40;99.90;;;;;;5045686;28;20219;-76
2024/03/13 09:48:06;;;;;;;0.90;0.80;;;9.40;99.90;;;;;;5041438;28;20215;-77
2024/03/13 09:50:33;;;;;;;1.00;0.90;;;9.40;99.90;;;;;;5039701;28;20251;-76
2024/03/13 09:53:00;;;;;;;1.20;0.75;;;9.50;99.90;;;;;;5042162;28;20262;-76
2024/03/13 09:55:27;;;;;;;1.05;0.85;;;9.50;99.90;;;;;;5040972;28;20231;-76
2024/03/13 09:57:55;;;;;;;1.20;1.02;;;9.60;99.90;;;;;;5043205;28;20584;-76
2024/03/13 10:00:23;;;;;;;1.00;0.80;;;9.70;99.90;;;;;;5047561;28;20261;-76
2024/03/13 10:02:50;;;;;;;1.65;1.20;;;9.80;99.90;;;;;;5054885;28;20224;-76
2024/03/13 10:05:18;;;;;;;1.27;1.10;;;9.90;99.90;;;;;;5054905;28;20220;-77
2024/03/13 10:07:44;;;;;;;1.30;1.20;;;10.10;99.90;;;;;;5047558;28;20238;-76
2024/03/13 10:10:17;;;;;;;3.42;1.02;;;10.10;99.90;;;;;;5042350;28;20691;-76
2024/03/13 10:12:44;;;;;;;1.00;0.90;;;10.10;99.90;;;;;;5040376;28;20228;-76
2024/03/13 10:15:15;;;;;;;1.10;1.00;;;10.30;99.90;;;;;;5041869;28;20205;-76
2024/03/13 10:17:43;;;;;;;0.80;0.80;;;10.40;99.90;;;;;;5041935;28;20205;-76
2024/03/13 10:20:13;;;;;;;0.90;0.80;;;10.60;99.90;;;;;;5047685;28;20208;-76
2024/03/13 10:22:40;;;;;;;0.90;0.80;;;10.90;99.90;;;;;;5054321;28;20752;-76
2024/03/13 10:25:09;;;;;;;4.40;1.23;;;11.20;99.90;;;;;;5054316;28;20608;-75
2024/03/13 10:27:38;;;;;;;1.10;1.00;;;11.40;99.90;;;;;;5054833;28;20247;-76
2024/03/13 10:30:07;;;;;;;0.95;0.82;;;11.60;99.90;;;;;;5054217;28;20610;-77
2024/03/13 10:32:36;;;;;;;1.15;1.05;;;11.70;99.90;;;;;;5054787;28;20697;-75
2024/03/13 10:35:03;;;;;;;0.80;0.73;;;11.80;99.90;;;;;;5054582;28;20193;-75
2024/03/13 10:37:30;;;;;;;0.95;0.85;;;11.90;99.90;;;;;;5054550;28;20625;-76
2024/03/13 10:39:58;;;;;;;1.00;0.90;;;11.90;99.90;;;;;;5053872;28;20208;-76
2024/03/13 10:42:25;;;;;;;1.20;1.10;;;11.80;99.90;;;;;;5054049;28;20700;-76
2024/03/13 10:44:52;;;;;;;1.45;1.35;;;11.90;99.90;;;;;;5055277;28;20685;-76
2024/03/13 10:47:18;;;;;;;1.25;1.00;;;12.00;99.90;;;;;;5054221;28;20201;-76
2024/03/13 10:49:46;;;;;;;1.45;1.00;;;11.90;99.90;;;;;;5043516;28;20201;-75
2024/03/13 10:52:13;;;;;;;0.90;0.80;;;11.90;99.90;;;;;;5040714;28;20602;-76
2024/03/13 10:54:41;;;;;;;1.23;1.10;;;11.90;99.90;;;;;;5040706;28;20619;-76
2024/03/13 10:57:09;;;;;;;1.13;0.80;;;11.90;99.90;;;;;;5040723;28;20857;-75
2024/03/13 10:59:36;;;;;;;1.55;1.15;;;11.90;99.90;;;;;;5047174;28;20695;-76
2024/03/13 11:02:03;;;;;;;1.75;1.30;;;12.00;99.90;;;;;;5046805;28;20223;-77
2024/03/13 11:04:30;;;;;;;2.17;1.00;;;11.90;99.90;;;;;;5053381;28;20224;-77
2024/03/13 11:06:58;;;;;;;1.30;1.17;;;11.90;99.90;;;;;;5053550;28;20652;-77
2024/03/13 11:09:24;;;;;;;1.63;1.15;;;11.90;99.90;;;;;;5053306;28;20216;-77
2024/03/13 11:11:52;;;;;;;1.10;1.00;;;11.90;99.90;;;;;;5037055;28;20243;-77
2024/03/13 11:14:20;;;;;;;1.15;1.05;;;12.00;99.90;;;;;;5053055;28;20209;-77
2024/03/13 11:16:47;;;;;;;1.65;1.17;;;12.00;99.90;;;;;;5033482;28;20247;-76
2024/03/13 11:19:14;;;;;;;1.00;0.90;;;12.00;99.90;;;;;;5038912;28;20210;-77
2024/03/13 11:21:41;;;;;;;1.00;0.90;;;11.90;99.90;;;;;;5038020;28;20530;-76
2024/03/13 11:24:08;;;;;;;1.10;1.00;;;11.80;99.90;;;;;;5039189;28;20209;-77
2024/03/13 11:26:34;;;;;;;1.58;1.30;;;11.80;99.90;;;;;;5037839;28;20205;-77
2024/03/13 11:29:01;;;;;;;1.20;1.10;;;11.80;99.90;;;;;;5049940;28;20205;-76
2024/03/13 11:31:30;;;;;;;1.60;1.00;;;11.80;99.90;;;;;;5052649;28;20224;-76
2024/03/13 11:33:57;;;;;;;1.13;1.02;;;11.90;99.90;;;;;;5053554;28;20236;-76
2024/03/13 11:36:24;;;;;;;1.33;1.23;;;12.00;99.90;;;;;;5054407;28;20209;-76
2024/03/13 11:38:51;;;;;;;1.08;0.95;;;12.10;99.90;;;;;;5043320;28;20220;-77
2024/03/13 11:41:18;;;;;;;1.48;1.17;;;12.20;99.90;;;;;;5051416;28;20234;-77
2024/03/13 11:43:46;;;;;;;1.02;0.90;;;12.30;99.90;;;;;;5047613;28;20567;-76
2024/03/13 11:46:14;;;;;;;2.88;1.50;;;12.30;99.90;;;;;;5052676;28;20700;-77
2024/03/13 11:48:41;;;;;;;1.60;1.20;;;12.30;99.90;;;;;;5052774;28;20209;-77
2024/03/13 11:51:10;;;;;;;1.83;1.15;;;12.40;99.90;;;;;;5051889;28;20228;-77
2024/03/13 11:53:38;;;;;;;1.42;1.10;;;12.50;99.90;;;;;;5053085;28;20212;-77
2024/03/13 11:56:06;;;;;;;1.40;1.30;;;12.50;99.90;;;;;;5053278;28;20205;-77
2024/03/13 11:58:34;;;;;;;1.97;1.20;;;12.50;99.90;;;;;;5052837;28;20557;-76
2024/03/13 12:01:01;;;;;;;1.58;1.33;;;12.70;99.90;;;;;;5056089;28;20459;-77
2024/03/13 12:03:30;;;;;;;1.73;1.30;;;13.00;99.90;;;;;;5052310;28;20591;-77
2024/03/13 12:05:59;;;;;;;1.87;1.20;;;13.30;99.90;;;;;;5047415;28;20517;-76
2024/03/13 12:08:27;;;;;;;1.20;0.90;;;13.50;99.90;;;;;;5053347;28;20541;-77
2024/03/13 12:10:54;;;;;;;0.80;0.73;;;13.60;99.90;;;;;;5052839;28;20494;-77
2024/03/13 12:13:21;;;;;;;1.20;1.00;;;13.60;99.90;;;;;;5051875;28;20463;-77
2024/03/13 12:15:48;;;;;;;1.00;0.77;;;13.60;99.90;;;;;;5049923;28;20891;-76
2024/03/13 12:18:16;;;;;;;1.00;0.80;;;13.50;99.90;;;;;;5040425;28;20463;-76
2024/03/13 12:20:43;;;;;;;1.10;0.90;;;13.50;99.90;;;;;;5040157;28;20455;-76
2024/03/13 12:23:12;;;;;;;1.00;0.90;;;13.50;99.90;;;;;;5042177;28;20478;-76
2024/03/13 12:25:40;;;;;;;1.17;0.77;;;13.30;99.90;;;;;;5050480;28;20482;-76
2024/03/13 12:28:16;;;;;;;0.80;0.67;;;13.20;99.90;;;;;;5038393;28;20466;-76
2024/03/13 12:30:43;;;;;;;1.23;0.70;;;13.20;99.90;;;;;;5036164;28;20529;-76
2024/03/13 12:33:11;;;;;;;0.80;0.73;;;13.30;99.90;;;;;;5045336;28;21020;-75
2024/03/13 12:35:38;;;;;;;0.80;0.70;;;13.20;99.90;;;;;;5056336;28;20470;-75
2024/03/13 12:38:05;;;;;;;0.80;0.60;;;13.20;99.90;;;;;;5056259;28;20465;-75
2024/03/13 12:40:33;;;;;;;2.07;0.80;;;13.40;99.90;;;;;;5056100;28;20473;-75
2024/03/13 12:43:01;;;;;;;1.47;0.87;;;13.70;99.90;;;;;;5045171;28;20540;-77
2024/03/13 12:45:29;;;;;;;1.10;0.77;;;14.00;99.90;;;;;;5046962;28;21082;-78
2024/03/13 12:47:55;;;;;;;0.83;0.77;;;14.00;99.90;;;;;;5051507;28;20472;-75
2024/03/13 12:50:22;;;;;;;1.27;0.70;;;13.70;99.90;;;;;;5053654;28;20467;-75
2024/03/13 12:52:49;;;;;;;0.80;0.70;;;13.40;99.90;;;;;;5047887;28;20485;-75
2024/03/13 12:55:17;;;;;;;1.10;0.90;;;13.20;99.90;;;;;;5054955;28;20490;-74
2024/03/13 12:57:44;;;;;;;0.90;0.70;;;13.10;99.90;;;;;;5052471;28;20714;-75
2024/03/13 13:00:14;;;;;;;0.80;0.60;;;13.00;99.90;;;;;;5050113;28;20545;-75
2024/03/13 13:02:44;;;;;;;1.10;0.90;;;13.00;99.90;;;;;;5053849;28;20481;-78
2024/03/13 13:05:12;;;;;;;1.13;0.80;;;13.10;99.90;;;;;;5054625;28;20493;-76
2024/03/13 13:07:48;;;;;;;0.87;0.80;;;13.10;99.90;;;;;;5051170;28;20506;-75
2024/03/13 13:10:15;;;;;;;0.90;0.77;;;13.10;99.90;;;;;;5050832;28;20477;-75
2024/03/13 13:12:43;;;;;;;1.00;0.80;;;13.20;99.90;;;;;;5051833;28;20562;-75
2024/03/13 13:15:12;;;;;;;1.00;0.80;;;13.30;99.90;;;;;;5050534;28;20818;-75